sensor_id;sensor_type;location;lat;lon;timestamp;P1;durP1;ratioP1;P2;durP2;ratioP2
38224;SDS011;24025;48.138;11.428;2023-04-23T00:00:52;2.58;;;1.27;;
38224;SDS011;24025;48.138;11.428;2023-04-23T00:03:28;3.38;;;1.30;;
38224;SDS011;24025;48.138;11.428;2023-04-23T00:06:04;2.35;;;1.30;;
38224;SDS011;24025;48.138;11.428;2023-04-23T00:08:39;2.97;;;1.08;;
38224;SDS011;24025;48.138;11.428;2023-04-23T00:11:11;3.67;;;1.27;;
38224;SDS011;24025;48.138;11.428;2023-04-23T00:13:43;2.25;;;1.27;;
38224;SDS011;24025;48.138;11.428;2023-04-23T00:16:17;1.80;;;1.25;;
38224;SDS011;24025;48.138;11.428;2023-04-23T00:18:50;1.92;;;1.30;;
38224;SDS011;24025;48.138;11.428;2023-04-23T00:21:21;1.80;;;1.35;;
38224;SDS011;24025;48.138;11.428;2023-04-23T00:23:53;3.33;;;1.27;;
38224;SDS011;24025;48.138;11.428;2023-04-23T00:26:24;1.58;;;1.10;;
38224;SDS011;24025;48.138;11.428;2023-04-23T00:28:56;3.53;;;1.27;;
38224;SDS011;24025;48.138;11.428;2023-04-23T00:31:28;5.50;;;1.77;;
38224;SDS011;24025;48.138;11.428;2023-04-23T00:33:59;2.08;;;1.20;;
38224;SDS011;24025;48.138;11.428;2023-04-23T00:36:31;1.88;;;1.38;;
38224;SDS011;24025;48.138;11.428;2023-04-23T00:39:02;2.10;;;1.17;;
38224;SDS011;24025;48.138;11.428;2023-04-23T00:41:34;2.30;;;1.35;;
38224;SDS011;24025;48.138;11.428;2023-04-23T00:44:06;2.22;;;1.33;;
38224;SDS011;24025;48.138;11.428;2023-04-23T00:46:37;2.47;;;1.30;;
38224;SDS011;24025;48.138;11.428;2023-04-23T00:49:09;3.40;;;1.27;;
38224;SDS011;24025;48.138;11.428;2023-04-23T00:54:12;2.28;;;1.42;;
38224;SDS011;24025;48.138;11.428;2023-04-23T00:56:44;2.15;;;1.38;;
38224;SDS011;24025;48.138;11.428;2023-04-23T00:59:15;6.57;;;1.38;;
38224;SDS011;24025;48.138;11.428;2023-04-23T01:01:47;2.38;;;1.15;;
38224;SDS011;24025;48.138;11.428;2023-04-23T01:04:19;3.60;;;1.08;;
38224;SDS011;24025;48.138;11.428;2023-04-23T01:06:53;1.55;;;1.05;;
38224;SDS011;24025;48.138;11.428;2023-04-23T01:09:26;2.10;;;1.02;;
38224;SDS011;24025;48.138;11.428;2023-04-23T01:12:04;2.05;;;1.38;;
38224;SDS011;24025;48.138;11.428;2023-04-23T01:14:36;2.33;;;1.30;;
38224;SDS011;24025;48.138;11.428;2023-04-23T01:17:09;3.17;;;1.40;;
38224;SDS011;24025;48.138;11.428;2023-04-23T01:19:42;4.60;;;1.10;;
38224;SDS011;24025;48.138;11.428;2023-04-23T01:22:14;3.88;;;1.13;;
38224;SDS011;24025;48.138;11.428;2023-04-23T01:24:46;2.22;;;0.98;;
38224;SDS011;24025;48.138;11.428;2023-04-23T01:27:19;5.72;;;1.30;;
38224;SDS011;24025;48.138;11.428;2023-04-23T01:29:52;4.10;;;1.10;;
38224;SDS011;24025;48.138;11.428;2023-04-23T01:32:24;3.85;;;1.30;;
38224;SDS011;24025;48.138;11.428;2023-04-23T01:34:56;3.78;;;1.20;;
38224;SDS011;24025;48.138;11.428;2023-04-23T01:37:28;1.85;;;1.13;;
38224;SDS011;24025;48.138;11.428;2023-04-23T01:40:00;2.55;;;1.10;;
38224;SDS011;24025;48.138;11.428;2023-04-23T01:42:32;1.73;;;1.30;;
38224;SDS011;24025;48.138;11.428;2023-04-23T01:45:04;3.63;;;1.52;;
38224;SDS011;24025;48.138;11.428;2023-04-23T01:47:38;2.33;;;1.25;;
38224;SDS011;24025;48.138;11.428;2023-04-23T01:50:12;2.97;;;1.42;;
38224;SDS011;24025;48.138;11.428;2023-04-23T01:55:16;2.33;;;1.23;;
38224;SDS011;24025;48.138;11.428;2023-04-23T01:57:49;1.83;;;1.00;;
38224;SDS011;24025;48.138;11.428;2023-04-23T02:00:21;3.08;;;1.25;;
38224;SDS011;24025;48.138;11.428;2023-04-23T02:02:53;5.85;;;1.58;;
38224;SDS011;24025;48.138;11.428;2023-04-23T02:05:25;4.82;;;1.35;;
38224;SDS011;24025;48.138;11.428;2023-04-23T02:07:58;1.30;;;1.15;;
38224;SDS011;24025;48.138;11.428;2023-04-23T02:10:30;1.48;;;1.10;;
38224;SDS011;24025;48.138;11.428;2023-04-23T02:13:02;1.90;;;1.20;;
38224;SDS011;24025;48.138;11.428;2023-04-23T02:18:08;1.70;;;1.15;;
38224;SDS011;24025;48.138;11.428;2023-04-23T02:20:40;2.28;;;1.50;;
38224;SDS011;24025;48.138;11.428;2023-04-23T02:23:12;2.00;;;1.15;;
38224;SDS011;24025;48.138;11.428;2023-04-23T02:25:44;3.55;;;1.35;;
38224;SDS011;24025;48.138;11.428;2023-04-23T02:28:16;4.10;;;1.40;;
38224;SDS011;24025;48.138;11.428;2023-04-23T02:30:47;4.65;;;1.17;;
38224;SDS011;24025;48.138;11.428;2023-04-23T02:33:19;2.17;;;1.25;;
38224;SDS011;24025;48.138;11.428;2023-04-23T02:35:51;4.43;;;1.40;;
38224;SDS011;24025;48.138;11.428;2023-04-23T02:38:22;1.80;;;1.40;;
38224;SDS011;24025;48.138;11.428;2023-04-23T02:40:54;6.57;;;1.35;;
38224;SDS011;24025;48.138;11.428;2023-04-23T02:43:25;2.92;;;1.30;;
38224;SDS011;24025;48.138;11.428;2023-04-23T02:45:57;2.20;;;1.38;;
38224;SDS011;24025;48.138;11.428;2023-04-23T02:48:28;3.63;;;1.23;;
38224;SDS011;24025;48.138;11.428;2023-04-23T02:53:33;4.38;;;1.75;;
38224;SDS011;24025;48.138;11.428;2023-04-23T02:56:04;4.32;;;1.55;;
38224;SDS011;24025;48.138;11.428;2023-04-23T02:58:37;2.65;;;1.30;;
38224;SDS011;24025;48.138;11.428;2023-04-23T03:01:08;1.70;;;1.20;;
38224;SDS011;24025;48.138;11.428;2023-04-23T03:03:40;6.20;;;1.48;;
38224;SDS011;24025;48.138;11.428;2023-04-23T03:06:12;5.30;;;1.27;;
38224;SDS011;24025;48.138;11.428;2023-04-23T03:08:44;1.95;;;1.30;;
38224;SDS011;24025;48.138;11.428;2023-04-23T03:11:16;5.18;;;1.58;;
38224;SDS011;24025;48.138;11.428;2023-04-23T03:13:47;7.55;;;1.73;;
38224;SDS011;24025;48.138;11.428;2023-04-23T03:16:19;3.38;;;1.40;;
38224;SDS011;24025;48.138;11.428;2023-04-23T03:18:51;1.88;;;1.35;;
38224;SDS011;24025;48.138;11.428;2023-04-23T03:21:22;3.25;;;1.33;;
38224;SDS011;24025;48.138;11.428;2023-04-23T03:23:54;1.98;;;1.02;;
38224;SDS011;24025;48.138;11.428;2023-04-23T03:26:26;2.42;;;1.20;;
38224;SDS011;24025;48.138;11.428;2023-04-23T03:28:58;3.78;;;1.85;;
38224;SDS011;24025;48.138;11.428;2023-04-23T03:31:29;2.17;;;1.00;;
38224;SDS011;24025;48.138;11.428;2023-04-23T03:34:01;2.70;;;1.40;;
38224;SDS011;24025;48.138;11.428;2023-04-23T03:36:33;1.83;;;1.40;;
38224;SDS011;24025;48.138;11.428;2023-04-23T03:39:04;2.38;;;1.30;;
38224;SDS011;24025;48.138;11.428;2023-04-23T03:41:36;2.80;;;1.40;;
38224;SDS011;24025;48.138;11.428;2023-04-23T03:44:07;2.53;;;1.55;;
38224;SDS011;24025;48.138;11.428;2023-04-23T03:46:39;2.63;;;1.50;;
38224;SDS011;24025;48.138;11.428;2023-04-23T03:49:10;3.25;;;1.60;;
38224;SDS011;24025;48.138;11.428;2023-04-23T03:51:42;2.33;;;1.30;;
38224;SDS011;24025;48.138;11.428;2023-04-23T03:54:13;2.05;;;1.40;;
38224;SDS011;24025;48.138;11.428;2023-04-23T03:56:45;2.80;;;1.30;;
38224;SDS011;24025;48.138;11.428;2023-04-23T03:59:17;1.83;;;1.23;;
38224;SDS011;24025;48.138;11.428;2023-04-23T04:01:48;2.88;;;1.23;;
38224;SDS011;24025;48.138;11.428;2023-04-23T04:04:20;2.28;;;1.40;;
38224;SDS011;24025;48.138;11.428;2023-04-23T04:06:52;3.08;;;1.40;;
38224;SDS011;24025;48.138;11.428;2023-04-23T04:09:25;3.25;;;1.33;;
38224;SDS011;24025;48.138;11.428;2023-04-23T04:11:57;2.05;;;1.30;;
38224;SDS011;24025;48.138;11.428;2023-04-23T04:14:29;4.75;;;1.42;;
38224;SDS011;24025;48.138;11.428;2023-04-23T04:17:01;2.78;;;1.40;;
38224;SDS011;24025;48.138;11.428;2023-04-23T04:19:33;1.60;;;1.23;;
38224;SDS011;24025;48.138;11.428;2023-04-23T04:22:04;1.63;;;1.42;;
38224;SDS011;24025;48.138;11.428;2023-04-23T04:27:08;1.50;;;1.40;;
38224;SDS011;24025;48.138;11.428;2023-04-23T04:29:40;2.92;;;1.67;;
38224;SDS011;24025;48.138;11.428;2023-04-23T04:32:11;3.47;;;1.77;;
38224;SDS011;24025;48.138;11.428;2023-04-23T04:34:44;2.97;;;1.70;;
38224;SDS011;24025;48.138;11.428;2023-04-23T04:37:15;4.85;;;1.73;;
38224;SDS011;24025;48.138;11.428;2023-04-23T04:39:47;3.47;;;1.65;;
38224;SDS011;24025;48.138;11.428;2023-04-23T04:42:18;5.43;;;1.73;;
38224;SDS011;24025;48.138;11.428;2023-04-23T04:44:50;6.43;;;2.08;;
38224;SDS011;24025;48.138;11.428;2023-04-23T04:47:23;3.20;;;1.95;;
38224;SDS011;24025;48.138;11.428;2023-04-23T04:49:54;3.60;;;1.92;;
38224;SDS011;24025;48.138;11.428;2023-04-23T04:52:27;2.20;;;1.60;;
38224;SDS011;24025;48.138;11.428;2023-04-23T04:54:59;5.18;;;1.70;;
38224;SDS011;24025;48.138;11.428;2023-04-23T04:57:30;2.90;;;1.85;;
38224;SDS011;24025;48.138;11.428;2023-04-23T05:00:17;3.78;;;2.20;;
38224;SDS011;24025;48.138;11.428;2023-04-23T05:02:53;3.63;;;2.10;;
38224;SDS011;24025;48.138;11.428;2023-04-23T05:05:29;4.20;;;2.00;;
38224;SDS011;24025;48.138;11.428;2023-04-23T05:08:00;6.53;;;2.35;;
38224;SDS011;24025;48.138;11.428;2023-04-23T05:10:35;3.45;;;2.20;;
38224;SDS011;24025;48.138;11.428;2023-04-23T05:13:06;2.22;;;2.03;;
38224;SDS011;24025;48.138;11.428;2023-04-23T05:15:38;4.90;;;2.38;;
38224;SDS011;24025;48.138;11.428;2023-04-23T05:18:10;2.90;;;2.05;;
38224;SDS011;24025;48.138;11.428;2023-04-23T05:20:41;4.13;;;2.30;;
38224;SDS011;24025;48.138;11.428;2023-04-23T05:23:13;4.97;;;2.53;;
38224;SDS011;24025;48.138;11.428;2023-04-23T05:25:44;3.92;;;2.22;;
38224;SDS011;24025;48.138;11.428;2023-04-23T05:28:16;2.83;;;2.20;;
38224;SDS011;24025;48.138;11.428;2023-04-23T05:30:48;3.80;;;1.90;;
38224;SDS011;24025;48.138;11.428;2023-04-23T05:33:20;3.30;;;2.17;;
38224;SDS011;24025;48.138;11.428;2023-04-23T05:35:52;9.75;;;2.53;;
38224;SDS011;24025;48.138;11.428;2023-04-23T05:38:24;8.07;;;2.33;;
38224;SDS011;24025;48.138;11.428;2023-04-23T05:40:57;4.75;;;2.53;;
38224;SDS011;24025;48.138;11.428;2023-04-23T05:43:29;2.55;;;1.88;;
38224;SDS011;24025;48.138;11.428;2023-04-23T05:46:00;4.30;;;2.97;;
38224;SDS011;24025;48.138;11.428;2023-04-23T05:48:34;6.93;;;2.97;;
38224;SDS011;24025;48.138;11.428;2023-04-23T05:51:06;6.80;;;2.15;;
38224;SDS011;24025;48.138;11.428;2023-04-23T05:53:38;2.75;;;2.08;;
38224;SDS011;24025;48.138;11.428;2023-04-23T05:56:09;3.40;;;2.78;;
38224;SDS011;24025;48.138;11.428;2023-04-23T05:58:41;4.90;;;2.42;;
38224;SDS011;24025;48.138;11.428;2023-04-23T06:01:12;4.95;;;3.03;;
38224;SDS011;24025;48.138;11.428;2023-04-23T06:03:44;4.72;;;2.90;;
38224;SDS011;24025;48.138;11.428;2023-04-23T06:06:16;4.63;;;2.78;;
38224;SDS011;24025;48.138;11.428;2023-04-23T06:08:47;4.20;;;2.47;;
38224;SDS011;24025;48.138;11.428;2023-04-23T06:11:21;5.10;;;3.13;;
38224;SDS011;24025;48.138;11.428;2023-04-23T06:13:52;5.78;;;3.45;;
38224;SDS011;24025;48.138;11.428;2023-04-23T06:16:24;7.67;;;2.57;;
38224;SDS011;24025;48.138;11.428;2023-04-23T06:18:56;5.07;;;2.63;;
38224;SDS011;24025;48.138;11.428;2023-04-23T06:21:27;4.68;;;3.00;;
38224;SDS011;24025;48.138;11.428;2023-04-23T06:23:59;4.43;;;2.47;;
38224;SDS011;24025;48.138;11.428;2023-04-23T06:26:30;3.78;;;2.45;;
38224;SDS011;24025;48.138;11.428;2023-04-23T06:29:03;7.38;;;3.00;;
38224;SDS011;24025;48.138;11.428;2023-04-23T06:31:34;4.93;;;2.63;;
38224;SDS011;24025;48.138;11.428;2023-04-23T06:34:06;4.10;;;2.80;;
38224;SDS011;24025;48.138;11.428;2023-04-23T06:36:38;3.90;;;2.38;;
38224;SDS011;24025;48.138;11.428;2023-04-23T06:39:09;5.68;;;2.80;;
38224;SDS011;24025;48.138;11.428;2023-04-23T06:41:41;2.33;;;2.13;;
38224;SDS011;24025;48.138;11.428;2023-04-23T06:44:12;5.20;;;2.90;;
38224;SDS011;24025;48.138;11.428;2023-04-23T06:46:44;3.90;;;2.33;;
38224;SDS011;24025;48.138;11.428;2023-04-23T06:49:16;3.03;;;2.25;;
38224;SDS011;24025;48.138;11.428;2023-04-23T06:51:48;3.33;;;2.45;;
38224;SDS011;24025;48.138;11.428;2023-04-23T06:54:19;2.78;;;2.35;;
38224;SDS011;24025;48.138;11.428;2023-04-23T06:56:51;4.30;;;2.25;;
38224;SDS011;24025;48.138;11.428;2023-04-23T06:59:22;3.58;;;2.00;;
38224;SDS011;24025;48.138;11.428;2023-04-23T07:01:54;3.22;;;2.55;;
38224;SDS011;24025;48.138;11.428;2023-04-23T07:04:25;3.63;;;2.13;;
38224;SDS011;24025;48.138;11.428;2023-04-23T07:06:57;4.43;;;3.10;;
38224;SDS011;24025;48.138;11.428;2023-04-23T07:09:28;4.88;;;2.05;;
38224;SDS011;24025;48.138;11.428;2023-04-23T07:12:01;2.15;;;1.60;;
38224;SDS011;24025;48.138;11.428;2023-04-23T07:14:33;2.85;;;1.45;;
38224;SDS011;24025;48.138;11.428;2023-04-23T07:17:04;4.38;;;2.30;;
38224;SDS011;24025;48.138;11.428;2023-04-23T07:19:36;3.85;;;1.90;;
38224;SDS011;24025;48.138;11.428;2023-04-23T07:22:08;3.00;;;2.15;;
38224;SDS011;24025;48.138;11.428;2023-04-23T07:24:39;3.97;;;2.00;;
38224;SDS011;24025;48.138;11.428;2023-04-23T07:29:43;2.63;;;1.70;;
38224;SDS011;24025;48.138;11.428;2023-04-23T07:32:15;4.25;;;2.20;;
38224;SDS011;24025;48.138;11.428;2023-04-23T07:34:46;2.85;;;1.73;;
38224;SDS011;24025;48.138;11.428;2023-04-23T07:37:18;2.50;;;2.05;;
38224;SDS011;24025;48.138;11.428;2023-04-23T07:39:51;3.35;;;2.20;;
38224;SDS011;24025;48.138;11.428;2023-04-23T07:42:24;4.40;;;2.22;;
38224;SDS011;24025;48.138;11.428;2023-04-23T07:44:55;6.45;;;2.13;;
38224;SDS011;24025;48.138;11.428;2023-04-23T07:47:27;2.45;;;1.77;;
38224;SDS011;24025;48.138;11.428;2023-04-23T07:49:58;2.95;;;2.10;;
38224;SDS011;24025;48.138;11.428;2023-04-23T07:52:30;3.25;;;1.70;;
38224;SDS011;24025;48.138;11.428;2023-04-23T07:55:02;2.75;;;2.15;;
38224;SDS011;24025;48.138;11.428;2023-04-23T07:57:33;5.78;;;2.05;;
38224;SDS011;24025;48.138;11.428;2023-04-23T08:00:05;2.65;;;1.90;;
38224;SDS011;24025;48.138;11.428;2023-04-23T08:02:39;3.22;;;1.90;;
38224;SDS011;24025;48.138;11.428;2023-04-23T08:05:11;3.45;;;1.98;;
38224;SDS011;24025;48.138;11.428;2023-04-23T08:07:43;4.40;;;2.55;;
38224;SDS011;24025;48.138;11.428;2023-04-23T08:10:14;3.95;;;2.42;;
38224;SDS011;24025;48.138;11.428;2023-04-23T08:12:46;3.38;;;1.95;;
38224;SDS011;24025;48.138;11.428;2023-04-23T08:15:17;5.38;;;2.47;;
38224;SDS011;24025;48.138;11.428;2023-04-23T08:17:49;6.07;;;2.13;;
38224;SDS011;24025;48.138;11.428;2023-04-23T08:20:21;4.28;;;2.17;;
38224;SDS011;24025;48.138;11.428;2023-04-23T08:22:52;4.10;;;2.33;;
38224;SDS011;24025;48.138;11.428;2023-04-23T08:25:24;2.63;;;2.13;;
38224;SDS011;24025;48.138;11.428;2023-04-23T08:27:56;3.10;;;2.35;;
38224;SDS011;24025;48.138;11.428;2023-04-23T08:30:27;2.90;;;1.60;;
38224;SDS011;24025;48.138;11.428;2023-04-23T08:32:59;4.28;;;2.08;;
38224;SDS011;24025;48.138;11.428;2023-04-23T08:35:30;3.30;;;2.05;;
38224;SDS011;24025;48.138;11.428;2023-04-23T08:38:02;2.85;;;1.75;;
38224;SDS011;24025;48.138;11.428;2023-04-23T08:40:34;1.95;;;1.77;;
38224;SDS011;24025;48.138;11.428;2023-04-23T08:43:09;1.83;;;1.45;;
38224;SDS011;24025;48.138;11.428;2023-04-23T08:45:49;5.07;;;1.53;;
38224;SDS011;24025;48.138;11.428;2023-04-23T08:48:21;1.35;;;1.17;;
38224;SDS011;24025;48.138;11.428;2023-04-23T08:50:52;2.45;;;1.52;;
38224;SDS011;24025;48.138;11.428;2023-04-23T08:53:24;2.42;;;2.22;;
38224;SDS011;24025;48.138;11.428;2023-04-23T08:55:59;2.55;;;1.80;;
38224;SDS011;24025;48.138;11.428;2023-04-23T08:58:33;2.08;;;1.60;;
38224;SDS011;24025;48.138;11.428;2023-04-23T09:01:06;2.25;;;1.10;;
38224;SDS011;24025;48.138;11.428;2023-04-23T09:03:38;1.58;;;1.13;;
38224;SDS011;24025;48.138;11.428;2023-04-23T09:06:11;2.05;;;1.30;;
38224;SDS011;24025;48.138;11.428;2023-04-23T09:08:42;2.42;;;1.70;;
38224;SDS011;24025;48.138;11.428;2023-04-23T09:11:15;1.98;;;1.40;;
38224;SDS011;24025;48.138;11.428;2023-04-23T09:13:47;1.70;;;0.98;;
38224;SDS011;24025;48.138;11.428;2023-04-23T09:16:19;1.15;;;0.70;;
38224;SDS011;24025;48.138;11.428;2023-04-23T09:18:51;1.63;;;0.95;;
38224;SDS011;24025;48.138;11.428;2023-04-23T09:21:22;1.17;;;0.80;;
38224;SDS011;24025;48.138;11.428;2023-04-23T09:23:54;2.67;;;1.08;;
38224;SDS011;24025;48.138;11.428;2023-04-23T09:26:25;2.75;;;0.90;;
38224;SDS011;24025;48.138;11.428;2023-04-23T09:28:57;2.03;;;1.45;;
38224;SDS011;24025;48.138;11.428;2023-04-23T09:31:28;1.35;;;0.80;;
38224;SDS011;24025;48.138;11.428;2023-04-23T09:34:00;0.80;;;0.80;;
38224;SDS011;24025;48.138;11.428;2023-04-23T09:36:32;1.60;;;0.70;;
38224;SDS011;24025;48.138;11.428;2023-04-23T09:39:10;1.67;;;0.75;;
38224;SDS011;24025;48.138;11.428;2023-04-23T09:41:43;1.60;;;0.95;;
38224;SDS011;24025;48.138;11.428;2023-04-23T09:44:19;2.75;;;0.85;;
38224;SDS011;24025;48.138;11.428;2023-04-23T09:46:54;0.98;;;0.63;;
38224;SDS011;24025;48.138;11.428;2023-04-23T09:49:25;1.95;;;0.90;;
38224;SDS011;24025;48.138;11.428;2023-04-23T09:51:57;2.50;;;1.10;;
38224;SDS011;24025;48.138;11.428;2023-04-23T09:54:36;1.38;;;0.98;;
38224;SDS011;24025;48.138;11.428;2023-04-23T09:57:08;3.50;;;1.73;;
38224;SDS011;24025;48.138;11.428;2023-04-23T09:59:41;1.27;;;0.82;;
38224;SDS011;24025;48.138;11.428;2023-04-23T10:02:25;1.75;;;1.23;;
38224;SDS011;24025;48.138;11.428;2023-04-23T10:04:58;4.22;;;1.08;;
38224;SDS011;24025;48.138;11.428;2023-04-23T10:07:44;1.15;;;0.98;;
38224;SDS011;24025;48.138;11.428;2023-04-23T10:10:19;2.42;;;1.20;;
38224;SDS011;24025;48.138;11.428;2023-04-23T10:12:51;4.15;;;1.40;;
38224;SDS011;24025;48.138;11.428;2023-04-23T10:15:26;1.75;;;1.15;;
38224;SDS011;24025;48.138;11.428;2023-04-23T10:17:58;1.75;;;1.13;;
38224;SDS011;24025;48.138;11.428;2023-04-23T10:20:30;3.25;;;0.98;;
38224;SDS011;24025;48.138;11.428;2023-04-23T10:23:02;4.65;;;1.20;;
38224;SDS011;24025;48.138;11.428;2023-04-23T10:25:35;2.30;;;1.38;;
38224;SDS011;24025;48.138;11.428;2023-04-23T10:28:09;3.10;;;1.17;;
38224;SDS011;24025;48.138;11.428;2023-04-23T10:30:43;1.52;;;0.98;;
38224;SDS011;24025;48.138;11.428;2023-04-23T10:33:15;1.27;;;0.88;;
38224;SDS011;24025;48.138;11.428;2023-04-23T10:35:59;1.95;;;1.05;;
38224;SDS011;24025;48.138;11.428;2023-04-23T10:38:31;1.90;;;0.90;;
38224;SDS011;24025;48.138;11.428;2023-04-23T10:41:04;2.35;;;1.30;;
38224;SDS011;24025;48.138;11.428;2023-04-23T10:43:38;2.45;;;1.30;;
38224;SDS011;24025;48.138;11.428;2023-04-23T10:49:12;3.05;;;1.08;;
38224;SDS011;24025;48.138;11.428;2023-04-23T10:51:47;1.33;;;0.93;;
38224;SDS011;24025;48.138;11.428;2023-04-23T10:54:26;4.75;;;1.42;;
38224;SDS011;24025;48.138;11.428;2023-04-23T10:57:03;1.13;;;0.85;;
38224;SDS011;24025;48.138;11.428;2023-04-23T10:59:39;2.03;;;0.90;;
38224;SDS011;24025;48.138;11.428;2023-04-23T11:02:22;1.40;;;1.00;;
38224;SDS011;24025;48.138;11.428;2023-04-23T11:04:55;2.70;;;1.00;;
38224;SDS011;24025;48.138;11.428;2023-04-23T11:07:29;2.65;;;0.98;;
38224;SDS011;24025;48.138;11.428;2023-04-23T11:10:11;2.55;;;1.00;;
38224;SDS011;24025;48.138;11.428;2023-04-23T11:12:43;1.13;;;0.70;;
38224;SDS011;24025;48.138;11.428;2023-04-23T11:15:17;1.98;;;0.77;;
38224;SDS011;24025;48.138;11.428;2023-04-23T11:20:23;1.23;;;0.90;;
38224;SDS011;24025;48.138;11.428;2023-04-23T11:22:55;3.30;;;0.80;;
38224;SDS011;24025;48.138;11.428;2023-04-23T11:25:26;3.38;;;0.80;;
38224;SDS011;24025;48.138;11.428;2023-04-23T11:30:31;1.98;;;0.63;;
38224;SDS011;24025;48.138;11.428;2023-04-23T11:33:03;2.95;;;0.70;;
38224;SDS011;24025;48.138;11.428;2023-04-23T11:35:35;4.63;;;1.00;;
38224;SDS011;24025;48.138;11.428;2023-04-23T11:38:10;2.05;;;0.98;;
38224;SDS011;24025;48.138;11.428;2023-04-23T11:40:44;1.38;;;0.80;;
38224;SDS011;24025;48.138;11.428;2023-04-23T11:43:19;2.88;;;0.60;;
38224;SDS011;24025;48.138;11.428;2023-04-23T11:45:51;1.15;;;0.70;;
38224;SDS011;24025;48.138;11.428;2023-04-23T11:48:23;1.20;;;0.90;;
38224;SDS011;24025;48.138;11.428;2023-04-23T11:50:54;0.95;;;0.70;;
38224;SDS011;24025;48.138;11.428;2023-04-23T11:53:27;1.98;;;0.88;;
38224;SDS011;24025;48.138;11.428;2023-04-23T11:56:00;1.73;;;0.90;;
38224;SDS011;24025;48.138;11.428;2023-04-23T11:58:31;1.88;;;1.13;;
38224;SDS011;24025;48.138;11.428;2023-04-23T12:01:04;2.33;;;1.35;;
38224;SDS011;24025;48.138;11.428;2023-04-23T12:03:35;1.23;;;0.77;;
38224;SDS011;24025;48.138;11.428;2023-04-23T12:06:07;1.85;;;1.10;;
38224;SDS011;24025;48.138;11.428;2023-04-23T12:08:38;2.72;;;0.90;;
38224;SDS011;24025;48.138;11.428;2023-04-23T12:11:13;0.90;;;0.82;;
38224;SDS011;24025;48.138;11.428;2023-04-23T12:13:45;2.97;;;0.98;;
38224;SDS011;24025;48.138;11.428;2023-04-23T12:16:17;1.23;;;1.00;;
38224;SDS011;24025;48.138;11.428;2023-04-23T12:19:47;0.82;;;0.80;;
38224;SDS011;24025;48.138;11.428;2023-04-23T12:22:02;2.30;;;0.90;;
38224;SDS011;24025;48.138;11.428;2023-04-23T12:24:44;5.55;;;1.25;;
38224;SDS011;24025;48.138;11.428;2023-04-23T12:27:19;2.83;;;1.23;;
38224;SDS011;24025;48.138;11.428;2023-04-23T12:30:01;2.47;;;1.17;;
38224;SDS011;24025;48.138;11.428;2023-04-23T12:32:37;1.27;;;1.10;;
38224;SDS011;24025;48.138;11.428;2023-04-23T12:35:09;1.00;;;0.90;;
38224;SDS011;24025;48.138;11.428;2023-04-23T12:37:41;1.13;;;0.90;;
38224;SDS011;24025;48.138;11.428;2023-04-23T12:40:12;5.72;;;1.08;;
38224;SDS011;24025;48.138;11.428;2023-04-23T12:42:44;1.40;;;1.10;;
38224;SDS011;24025;48.138;11.428;2023-04-23T12:45:16;2.35;;;1.25;;
38224;SDS011;24025;48.138;11.428;2023-04-23T12:47:47;1.20;;;1.00;;
38224;SDS011;24025;48.138;11.428;2023-04-23T12:50:19;1.20;;;1.00;;
38224;SDS011;24025;48.138;11.428;2023-04-23T12:52:50;1.90;;;1.23;;
38224;SDS011;24025;48.138;11.428;2023-04-23T12:55:22;2.15;;;0.90;;
38224;SDS011;24025;48.138;11.428;2023-04-23T12:57:53;2.08;;;1.30;;
38224;SDS011;24025;48.138;11.428;2023-04-23T13:00:25;1.48;;;1.38;;
38224;SDS011;24025;48.138;11.428;2023-04-23T13:02:57;2.67;;;1.42;;
38224;SDS011;24025;48.138;11.428;2023-04-23T13:05:28;0.90;;;0.85;;
38224;SDS011;24025;48.138;11.428;2023-04-23T13:10:32;1.25;;;1.02;;
38224;SDS011;24025;48.138;11.428;2023-04-23T13:13:04;2.03;;;1.10;;
38224;SDS011;24025;48.138;11.428;2023-04-23T13:15:36;2.13;;;1.15;;
38224;SDS011;24025;48.138;11.428;2023-04-23T13:18:07;1.58;;;1.38;;
38224;SDS011;24025;48.138;11.428;2023-04-23T13:20:39;4.10;;;1.42;;
38224;SDS011;24025;48.138;11.428;2023-04-23T13:23:10;2.10;;;1.38;;
38224;SDS011;24025;48.138;11.428;2023-04-23T13:25:43;2.33;;;1.20;;
38224;SDS011;24025;48.138;11.428;2023-04-23T13:28:15;1.85;;;1.25;;
38224;SDS011;24025;48.138;11.428;2023-04-23T13:30:46;1.00;;;0.90;;
38224;SDS011;24025;48.138;11.428;2023-04-23T13:33:18;2.20;;;1.17;;
38224;SDS011;24025;48.138;11.428;2023-04-23T13:35:51;2.25;;;1.35;;
38224;SDS011;24025;48.138;11.428;2023-04-23T13:38:23;1.88;;;1.48;;
38224;SDS011;24025;48.138;11.428;2023-04-23T13:40:56;2.35;;;1.20;;
38224;SDS011;24025;48.138;11.428;2023-04-23T13:43:27;3.38;;;1.40;;
38224;SDS011;24025;48.138;11.428;2023-04-23T13:45:59;2.03;;;1.23;;
38224;SDS011;24025;48.138;11.428;2023-04-23T13:48:31;2.75;;;1.40;;
38224;SDS011;24025;48.138;11.428;2023-04-23T13:53:47;2.20;;;1.75;;
38224;SDS011;24025;48.138;11.428;2023-04-23T13:56:18;1.58;;;1.13;;
38224;SDS011;24025;48.138;11.428;2023-04-23T13:58:50;2.58;;;1.67;;
38224;SDS011;24025;48.138;11.428;2023-04-23T14:01:23;5.38;;;1.17;;
38224;SDS011;24025;48.138;11.428;2023-04-23T14:03:54;1.52;;;1.00;;
38224;SDS011;24025;48.138;11.428;2023-04-23T14:06:27;2.30;;;1.00;;
38224;SDS011;24025;48.138;11.428;2023-04-23T14:08:58;2.22;;;1.23;;
38224;SDS011;24025;48.138;11.428;2023-04-23T14:11:30;2.10;;;1.20;;
38224;SDS011;24025;48.138;11.428;2023-04-23T14:14:01;3.28;;;1.40;;
38224;SDS011;24025;48.138;11.428;2023-04-23T14:16:33;1.30;;;1.05;;
38224;SDS011;24025;48.138;11.428;2023-04-23T14:19:05;4.00;;;1.17;;
38224;SDS011;24025;48.138;11.428;2023-04-23T14:21:37;3.10;;;1.30;;
38224;SDS011;24025;48.138;11.428;2023-04-23T14:24:32;1.92;;;1.17;;
38224;SDS011;24025;48.138;11.428;2023-04-23T14:27:03;2.35;;;1.23;;
38224;SDS011;24025;48.138;11.428;2023-04-23T14:29:39;1.33;;;0.90;;
38224;SDS011;24025;48.138;11.428;2023-04-23T14:32:20;2.13;;;1.40;;
38224;SDS011;24025;48.138;11.428;2023-04-23T14:34:52;1.60;;;0.88;;
38224;SDS011;24025;48.138;11.428;2023-04-23T14:37:23;6.03;;;1.50;;
38224;SDS011;24025;48.138;11.428;2023-04-23T14:39:55;1.52;;;1.00;;
38224;SDS011;24025;48.138;11.428;2023-04-23T14:42:26;1.77;;;1.25;;
38224;SDS011;24025;48.138;11.428;2023-04-23T14:44:58;4.10;;;0.95;;
38224;SDS011;24025;48.138;11.428;2023-04-23T14:47:32;2.00;;;1.00;;
38224;SDS011;24025;48.138;11.428;2023-04-23T14:50:04;3.75;;;1.35;;
38224;SDS011;24025;48.138;11.428;2023-04-23T14:52:36;3.20;;;1.35;;
38224;SDS011;24025;48.138;11.428;2023-04-23T14:55:08;1.63;;;1.00;;
38224;SDS011;24025;48.138;11.428;2023-04-23T14:57:41;1.70;;;1.00;;
38224;SDS011;24025;48.138;11.428;2023-04-23T15:05:17;1.33;;;1.10;;
38224;SDS011;24025;48.138;11.428;2023-04-23T15:07:50;2.30;;;1.20;;
38224;SDS011;24025;48.138;11.428;2023-04-23T15:10:23;2.15;;;1.20;;
38224;SDS011;24025;48.138;11.428;2023-04-23T15:13:02;1.48;;;1.10;;
38224;SDS011;24025;48.138;11.428;2023-04-23T15:20:51;2.78;;;1.35;;
38224;SDS011;24025;48.138;11.428;2023-04-23T15:23:23;3.88;;;1.50;;
38224;SDS011;24025;48.138;11.428;2023-04-23T15:25:55;4.05;;;1.20;;
38224;SDS011;24025;48.138;11.428;2023-04-23T15:28:26;3.70;;;1.50;;
38224;SDS011;24025;48.138;11.428;2023-04-23T15:30:58;1.63;;;1.15;;
38224;SDS011;24025;48.138;11.428;2023-04-23T15:33:29;3.25;;;1.30;;
38224;SDS011;24025;48.138;11.428;2023-04-23T15:41:04;1.63;;;1.05;;
38224;SDS011;24025;48.138;11.428;2023-04-23T15:43:36;4.57;;;1.35;;
38224;SDS011;24025;48.138;11.428;2023-04-23T15:46:08;2.33;;;1.77;;
38224;SDS011;24025;48.138;11.428;2023-04-23T15:51:11;2.03;;;1.70;;